Portada
METAR-TAF:

METAR-TAF

Aeroports :

Sparta, Wisconsin, Estats Units d'Amèrica

latitud: 43-57-30N, longitud: 090-44-16W, altitud: 255 m

Observació

L'informe es va fer fa 15 hores i 46 minuts, a les 15:15 UTC
Vent 3 kt del Oest
Temperatura -1°C
Humitat 100%
Pressió 1010 hPa
Visibilitat: 16.1 km
Cel cobert a una alçada de 500 ft

METAR: KCMY 201515Z AUTO 26003KT 10SM OVC005 M01/M01 A2982 RMK AO2 P0001 T10071010

Hora: 01:01 (07:01 UTC)


TAF: manca

Observacions i pronòstics meteorològics de més de 4000 aeroports (METAR i TAF).

Les estacions disponibles són els punts grocs i vermells al mapa.

Posi el ratolí al punt desitjat per veure el nom de l'estació.

Feu clic per veure les observacions i els pronòstics meteorològics.

Per canviar el mapa: feu clic els botons verds amb una creu de color negre per apropar; al botó verd amb un guió per allunyar la imatge; o en les fletxes verdes per a mapes adjacents.


METAR-TAF: